createdAt,value
2017-08-31T00:01:05.348Z,16.13
2017-08-31T00:03:32.861Z,18.67
2017-08-31T00:06:00.391Z,17.03
2017-08-31T00:08:27.906Z,16.13
2017-08-31T00:10:55.428Z,18.20
2017-08-31T00:13:22.982Z,17.50
2017-08-31T00:15:50.565Z,18.40
2017-08-31T00:18:18.068Z,19.50
2017-08-31T00:20:45.596Z,19.43
2017-08-31T00:23:13.114Z,18.87
2017-08-31T00:25:40.635Z,18.27
2017-08-31T00:28:08.163Z,17.80
2017-08-31T00:30:35.683Z,17.60
2017-08-31T00:33:03.277Z,19.10
2017-08-31T00:35:30.830Z,19.80
2017-08-31T00:37:58.347Z,20.57
2017-08-31T00:40:26.726Z,20.87
2017-08-31T00:42:54.274Z,18.53
2017-08-31T00:45:21.794Z,19.60
2017-08-31T00:47:49.316Z,19.57
2017-08-31T00:50:16.862Z,19.40
2017-08-31T00:52:44.386Z,20.00
2017-08-31T00:55:11.921Z,19.20
2017-08-31T00:57:39.470Z,19.80
2017-08-31T01:00:06.995Z,19.10
2017-08-31T01:02:34.500Z,19.33
2017-08-31T01:05:02.054Z,21.20
2017-08-31T01:07:29.574Z,20.73
2017-08-31T01:09:57.843Z,21.90
2017-08-31T01:12:25.375Z,21.77
2017-08-31T01:14:52.876Z,23.20
2017-08-31T01:17:20.394Z,22.07
2017-08-31T01:19:47.943Z,26.80
2017-08-31T01:22:15.466Z,25.60
2017-08-31T01:24:42.986Z,27.17
2017-08-31T01:27:10.515Z,28.60
2017-08-31T01:29:38.035Z,30.57
2017-08-31T01:32:05.540Z,31.80
2017-08-31T01:34:33.086Z,31.60
2017-08-31T01:37:00.632Z,33.30
2017-08-31T01:39:28.136Z,31.50
2017-08-31T01:41:55.667Z,33.40
2017-08-31T01:44:23.182Z,35.43
2017-08-31T01:46:50.683Z,38.80
2017-08-31T01:49:18.216Z,37.37
2017-08-31T01:51:45.739Z,36.37
2017-08-31T01:54:13.339Z,36.70
2017-08-31T01:56:40.881Z,36.30
2017-08-31T01:59:08.389Z,36.43
2017-08-31T02:01:36.030Z,36.57
2017-08-31T02:06:37.193Z,34.00
2017-08-31T02:09:04.705Z,36.93
2017-08-31T02:11:32.980Z,34.67
2017-08-31T02:14:00.514Z,34.60
2017-08-31T02:16:28.038Z,34.20
2017-08-31T02:18:55.540Z,32.30
2017-08-31T02:21:23.072Z,36.50
2017-08-31T02:23:50.708Z,35.60
2017-08-31T02:26:18.224Z,37.47
2017-08-31T02:28:45.824Z,39.90
2017-08-31T02:31:13.344Z,39.77
2017-08-31T02:33:40.856Z,41.10
2017-08-31T02:36:08.406Z,42.10
2017-08-31T02:38:36.698Z,42.83
2017-08-31T02:41:04.209Z,43.40
2017-08-31T02:43:31.744Z,43.70
2017-08-31T02:45:59.274Z,40.53
2017-08-31T02:48:26.793Z,43.87
2017-08-31T02:50:54.346Z,41.60
2017-08-31T02:53:21.858Z,45.27
2017-08-31T02:55:49.354Z,43.07
2017-08-31T02:58:16.902Z,41.87
2017-08-31T03:00:44.422Z,44.30
2017-08-31T03:03:11.928Z,42.20
2017-08-31T03:05:39.460Z,43.13
2017-08-31T03:08:06.960Z,43.80
2017-08-31T03:10:34.469Z,44.03
2017-08-31T03:13:02.223Z,42.00
2017-08-31T03:15:29.777Z,43.87
2017-08-31T03:17:57.294Z,44.97
2017-08-31T03:20:24.836Z,45.47
2017-08-31T03:22:52.350Z,43.73
2017-08-31T03:25:19.851Z,43.50
2017-08-31T03:27:47.398Z,45.73
2017-08-31T03:30:14.925Z,47.00
2017-08-31T03:32:42.427Z,45.40
2017-08-31T03:35:09.959Z,47.50
2017-08-31T03:37:37.478Z,44.13
2017-08-31T03:40:05.001Z,46.00
2017-08-31T03:42:32.547Z,46.80
2017-08-31T03:45:00.056Z,46.33
2017-08-31T03:47:28.356Z,47.30
2017-08-31T03:49:55.888Z,46.80
2017-08-31T03:52:24.165Z,44.83
2017-08-31T03:54:51.842Z,42.97
2017-08-31T03:57:19.395Z,45.90
2017-08-31T03:59:46.903Z,42.87
2017-08-31T04:02:14.411Z,46.60
2017-08-31T04:04:41.962Z,45.87
2017-08-31T04:07:09.463Z,45.10
2017-08-31T04:09:36.981Z,46.80
2017-08-31T04:12:04.663Z,45.50
2017-08-31T04:14:32.163Z,45.47
2017-08-31T04:16:59.683Z,47.53
2017-08-31T04:19:27.235Z,48.40
2017-08-31T04:21:54.744Z,50.00
2017-08-31T04:24:22.247Z,54.30
2017-08-31T04:26:49.784Z,56.67
2017-08-31T04:29:18.070Z,49.30
2017-08-31T04:31:45.576Z,61.10
2017-08-31T04:34:13.112Z,57.83
2017-08-31T04:36:40.624Z,59.17
2017-08-31T04:39:08.923Z,55.30
2017-08-31T04:41:36.472Z,51.87
2017-08-31T04:44:04.740Z,55.87
2017-08-31T04:46:33.051Z,48.70
2017-08-31T04:49:00.584Z,50.33
2017-08-31T04:51:28.860Z,46.90
2017-08-31T04:53:57.151Z,43.40
2017-08-31T04:56:24.699Z,35.67
2017-08-31T04:58:52.236Z,34.93
2017-08-31T05:01:19.750Z,31.87
2017-08-31T05:03:47.294Z,32.37
2017-08-31T05:06:14.810Z,31.40
2017-08-31T05:08:42.312Z,29.40
2017-08-31T05:11:09.858Z,26.60
2017-08-31T05:13:37.373Z,20.23
2017-08-31T05:16:04.885Z,17.63
2017-08-31T05:18:32.442Z,16.30
2017-08-31T05:20:59.975Z,17.17
2017-08-31T05:23:27.484Z,15.87
2017-08-31T05:25:55.017Z,13.50
2017-08-31T05:28:22.521Z,13.40
2017-08-31T05:30:50.038Z,13.07
2017-08-31T05:33:17.591Z,12.53
2017-08-31T05:35:45.110Z,10.67
2017-08-31T05:38:12.616Z,11.57
2017-08-31T05:40:40.144Z,9.70
2017-08-31T05:43:07.657Z,6.23
2017-08-31T05:45:35.169Z,7.10
2017-08-31T05:48:02.699Z,6.33
2017-08-31T05:50:30.210Z,7.30
2017-08-31T05:52:57.707Z,7.03
2017-08-31T05:55:25.322Z,7.03
2017-08-31T05:57:52.843Z,8.20
2017-08-31T06:00:21.203Z,6.77
2017-08-31T06:02:48.818Z,8.40
2017-08-31T06:05:16.320Z,8.53
2017-08-31T06:07:43.941Z,9.93
2017-08-31T06:10:11.482Z,8.40
2017-08-31T06:12:38.988Z,9.10
2017-08-31T06:15:06.492Z,8.73
2017-08-31T06:17:34.015Z,8.07
2017-08-31T06:20:01.538Z,7.83
2017-08-31T06:22:29.056Z,7.97
2017-08-31T06:24:56.646Z,8.30
2017-08-31T06:27:24.162Z,8.90
2017-08-31T06:29:51.667Z,7.50
2017-08-31T06:32:19.210Z,8.67
2017-08-31T06:34:46.722Z,7.67
2017-08-31T06:37:14.237Z,8.80
2017-08-31T06:39:41.760Z,9.53
2017-08-31T06:42:09.356Z,8.70
2017-08-31T06:44:36.860Z,7.73
2017-08-31T06:47:04.387Z,8.03
2017-08-31T06:49:31.902Z,8.97
2017-08-31T06:51:59.400Z,9.97
2017-08-31T06:54:27.051Z,9.60
2017-08-31T06:56:54.551Z,9.83
2017-08-31T06:59:22.168Z,10.20
2017-08-31T07:01:49.719Z,10.30
2017-08-31T07:04:17.234Z,9.37
2017-08-31T07:06:44.740Z,8.50
2017-08-31T07:09:13.101Z,7.93
2017-08-31T07:11:40.685Z,6.30
2017-08-31T07:14:08.193Z,7.80
2017-08-31T07:16:35.737Z,7.63
2017-08-31T07:19:03.231Z,6.10
2017-08-31T07:21:31.488Z,6.40
2017-08-31T07:23:59.093Z,5.77
2017-08-31T07:26:26.591Z,5.73
2017-08-31T07:28:54.105Z,6.80
2017-08-31T07:31:21.642Z,5.30
2017-08-31T07:33:49.148Z,5.20
2017-08-31T07:36:16.659Z,5.87
2017-08-31T07:38:44.203Z,6.43
2017-08-31T07:41:11.700Z,6.13
2017-08-31T07:43:39.199Z,8.30
2017-08-31T07:46:06.723Z,6.47
2017-08-31T07:48:34.230Z,6.00
2017-08-31T07:51:01.732Z,6.80
2017-08-31T07:53:29.278Z,7.07
2017-08-31T07:55:56.787Z,7.07
2017-08-31T07:58:24.305Z,5.63
2017-08-31T08:00:51.850Z,6.93
2017-08-31T08:03:19.358Z,5.60
2017-08-31T08:05:46.869Z,7.10
2017-08-31T08:08:16.009Z,5.67
2017-08-31T08:10:43.532Z,5.93
2017-08-31T08:13:11.032Z,6.37
2017-08-31T08:15:38.574Z,6.20
2017-08-31T08:18:06.073Z,6.60
2017-08-31T08:20:33.590Z,7.23
2017-08-31T08:23:01.112Z,6.17
2017-08-31T08:25:28.620Z,6.23
2017-08-31T08:27:56.149Z,5.57
2017-08-31T08:30:23.684Z,6.53
2017-08-31T08:32:51.176Z,5.70
2017-08-31T08:35:18.690Z,6.30
2017-08-31T08:37:46.216Z,6.47
2017-08-31T08:40:13.734Z,6.50
2017-08-31T08:42:41.252Z,5.00
2017-08-31T08:45:09.561Z,4.70
2017-08-31T08:47:37.080Z,4.60
2017-08-31T08:50:04.580Z,4.57
2017-08-31T08:52:32.118Z,4.77
2017-08-31T08:54:59.611Z,5.30
2017-08-31T08:57:27.119Z,6.07
2017-08-31T08:59:54.658Z,6.53
2017-08-31T09:02:22.148Z,5.50
2017-08-31T09:04:49.690Z,5.57
2017-08-31T09:07:17.995Z,5.57
2017-08-31T09:09:45.609Z,5.47
2017-08-31T09:12:13.122Z,5.50
2017-08-31T09:14:40.647Z,4.80
2017-08-31T09:17:08.162Z,4.73
2017-08-31T09:19:35.674Z,4.73
2017-08-31T09:22:03.972Z,6.30
2017-08-31T09:24:31.490Z,6.57
2017-08-31T09:26:58.992Z,6.87
2017-08-31T09:29:26.515Z,7.80
2017-08-31T09:31:54.039Z,7.63
2017-08-31T09:34:21.532Z,6.90
2017-08-31T09:36:49.074Z,7.40
2017-08-31T09:39:16.573Z,7.07
2017-08-31T09:41:44.095Z,7.00
2017-08-31T09:44:11.706Z,7.00
2017-08-31T09:46:39.204Z,6.90
2017-08-31T09:49:06.722Z,8.77
2017-08-31T09:51:34.251Z,9.00
2017-08-31T09:54:02.507Z,9.33
2017-08-31T09:56:30.115Z,9.73
2017-08-31T09:58:57.635Z,8.47
2017-08-31T10:01:25.140Z,7.57
2017-08-31T10:03:52.639Z,9.33
2017-08-31T10:06:20.187Z,6.77
2017-08-31T10:08:47.679Z,6.63
2017-08-31T10:11:15.190Z,5.60
2017-08-31T10:13:42.716Z,7.17
2017-08-31T10:16:10.239Z,7.57
2017-08-31T10:18:37.756Z,6.67
2017-08-31T10:21:05.280Z,5.77
2017-08-31T10:23:32.789Z,5.67
2017-08-31T10:26:00.279Z,5.70
2017-08-31T10:28:27.822Z,7.10
2017-08-31T10:30:55.329Z,8.90
2017-08-31T10:33:22.847Z,8.67
2017-08-31T10:35:50.398Z,6.30
2017-08-31T10:38:17.912Z,5.10
2017-08-31T10:40:45.435Z,4.00
2017-08-31T10:43:12.964Z,3.90
2017-08-31T10:45:40.464Z,2.53
2017-08-31T10:48:07.955Z,2.30
2017-08-31T10:50:35.482Z,2.30
2017-08-31T10:53:02.997Z,2.60
2017-08-31T10:55:30.562Z,2.83
2017-08-31T10:57:58.084Z,2.83
2017-08-31T11:00:26.186Z,3.83
2017-08-31T11:02:53.704Z,3.97
2017-08-31T11:05:21.261Z,3.20
2017-08-31T11:07:48.775Z,3.43
2017-08-31T11:10:16.286Z,3.43
2017-08-31T11:12:43.803Z,3.27
2017-08-31T11:15:12.085Z,2.67
2017-08-31T11:17:39.584Z,3.20
2017-08-31T11:20:07.141Z,2.87
2017-08-31T11:22:34.640Z,3.50
2017-08-31T11:25:02.141Z,4.00
2017-08-31T11:27:29.778Z,3.40
2017-08-31T11:29:57.372Z,3.23
2017-08-31T11:32:24.857Z,4.50
2017-08-31T11:34:52.411Z,4.40
2017-08-31T11:37:19.994Z,4.03
2017-08-31T11:39:48.177Z,3.07
2017-08-31T11:42:15.695Z,3.10
2017-08-31T11:44:43.199Z,2.60
2017-08-31T11:47:10.795Z,2.20
2017-08-31T11:49:38.352Z,2.37
2017-08-31T11:52:05.919Z,2.40
2017-08-31T11:54:33.475Z,2.30
2017-08-31T11:57:01.014Z,2.10
2017-08-31T11:59:28.520Z,1.70
2017-08-31T12:01:56.016Z,1.60
2017-08-31T12:04:23.558Z,1.90
2017-08-31T12:06:51.046Z,1.60
2017-08-31T12:09:18.565Z,1.80
2017-08-31T12:11:46.095Z,1.90
2017-08-31T12:14:13.610Z,2.43
2017-08-31T12:16:41.099Z,1.87
2017-08-31T12:19:08.637Z,1.97
2017-08-31T12:21:36.147Z,1.73
2017-08-31T12:24:03.648Z,1.70
2017-08-31T12:26:31.194Z,1.20
2017-08-31T12:28:58.707Z,1.07
2017-08-31T12:31:26.216Z,1.60
2017-08-31T12:33:53.765Z,1.00
2017-08-31T12:36:22.028Z,1.10
2017-08-31T12:38:49.562Z,1.17
2017-08-31T12:41:17.102Z,1.20
2017-08-31T12:43:44.600Z,1.60
2017-08-31T12:46:12.111Z,1.53
2017-08-31T12:48:39.639Z,2.50
2017-08-31T12:51:07.136Z,1.40
2017-08-31T12:53:34.646Z,1.40
2017-08-31T12:56:02.171Z,1.53
2017-08-31T12:58:29.687Z,1.77
2017-08-31T13:00:57.185Z,2.23
2017-08-31T13:03:24.731Z,2.93
2017-08-31T13:05:52.231Z,2.50
2017-08-31T13:08:19.746Z,2.40
2017-08-31T13:10:47.277Z,2.83
2017-08-31T13:13:14.875Z,2.03
2017-08-31T13:15:42.367Z,1.63
2017-08-31T13:18:09.896Z,1.60
2017-08-31T13:20:37.414Z,1.90
2017-08-31T13:23:04.912Z,2.20
2017-08-31T13:25:32.444Z,2.53
2017-08-31T13:27:59.935Z,1.80
2017-08-31T13:30:27.446Z,2.50
2017-08-31T13:32:54.971Z,2.23
2017-08-31T13:35:22.469Z,2.40
2017-08-31T13:37:49.967Z,2.30
2017-08-31T13:40:17.500Z,2.20
2017-08-31T13:42:45.000Z,2.60
2017-08-31T13:45:12.501Z,2.20
2017-08-31T13:47:40.024Z,2.17
2017-08-31T13:50:07.543Z,2.20
2017-08-31T13:52:35.065Z,2.57
2017-08-31T13:55:02.583Z,2.60
2017-08-31T13:57:30.202Z,2.53
2017-08-31T13:59:57.714Z,2.83
2017-08-31T14:02:25.253Z,1.30
2017-08-31T14:04:52.761Z,1.00
2017-08-31T14:07:20.269Z,1.23
2017-08-31T14:09:47.811Z,1.00
2017-08-31T14:12:15.326Z,0.90
2017-08-31T14:14:42.910Z,0.97
2017-08-31T14:17:10.452Z,0.90
2017-08-31T14:19:37.979Z,0.70
2017-08-31T14:22:05.476Z,1.50
2017-08-31T14:24:32.997Z,0.90
2017-08-31T14:27:00.606Z,0.90
2017-08-31T14:29:28.124Z,1.53
2017-08-31T14:31:55.667Z,1.43
2017-08-31T14:34:23.159Z,1.30
2017-08-31T14:36:50.678Z,0.90
2017-08-31T14:39:18.219Z,1.10
2017-08-31T14:41:45.723Z,1.30
2017-08-31T14:44:14.002Z,1.20
2017-08-31T14:46:41.538Z,1.10
2017-08-31T14:49:09.028Z,1.17
2017-08-31T14:51:36.528Z,0.97
2017-08-31T14:54:04.069Z,1.23
2017-08-31T14:56:31.568Z,0.97
2017-08-31T14:58:59.082Z,1.07
2017-08-31T15:01:26.625Z,1.10
2017-08-31T15:03:54.142Z,1.10
2017-08-31T15:06:21.687Z,1.37
2017-08-31T15:08:49.243Z,1.23
2017-08-31T15:11:16.740Z,1.70
2017-08-31T15:13:44.241Z,1.70
2017-08-31T15:16:11.807Z,1.80
2017-08-31T15:18:39.379Z,1.80
2017-08-31T15:21:06.890Z,1.87
2017-08-31T15:23:34.500Z,2.20
2017-08-31T15:26:02.015Z,2.40
2017-08-31T15:28:29.516Z,1.87
2017-08-31T15:30:57.044Z,2.30
2017-08-31T15:33:24.535Z,2.07
2017-08-31T15:35:52.028Z,2.20
2017-08-31T15:38:19.566Z,2.30
2017-08-31T15:40:47.064Z,2.20
2017-08-31T15:43:14.573Z,2.00
2017-08-31T15:45:42.100Z,2.50
2017-08-31T15:48:09.600Z,2.73
2017-08-31T15:50:37.106Z,3.07
2017-08-31T15:53:05.005Z,3.80
2017-08-31T15:55:32.506Z,2.67
2017-08-31T15:58:00.018Z,2.93
2017-08-31T16:00:27.544Z,3.97
2017-08-31T16:02:55.039Z,3.53
2017-08-31T16:05:22.555Z,3.83
2017-08-31T16:07:50.106Z,3.90
2017-08-31T16:10:17.614Z,3.27
2017-08-31T16:12:45.126Z,3.87
2017-08-31T16:15:12.651Z,4.37
2017-08-31T16:17:40.157Z,3.63
2017-08-31T16:20:07.664Z,3.67
2017-08-31T16:22:35.192Z,2.90
2017-08-31T16:25:02.692Z,2.57
2017-08-31T16:27:30.202Z,2.80
2017-08-31T16:29:57.737Z,2.00
2017-08-31T16:32:25.335Z,2.90
2017-08-31T16:34:52.832Z,2.63
2017-08-31T16:37:20.453Z,2.63
2017-08-31T16:39:47.950Z,1.60
2017-08-31T16:42:15.443Z,1.40
2017-08-31T16:44:42.976Z,1.53
2017-08-31T16:47:10.499Z,1.83
2017-08-31T16:49:37.991Z,1.63
2017-08-31T16:52:05.527Z,1.30
2017-08-31T16:54:33.028Z,1.47
2017-08-31T16:57:00.541Z,1.20
2017-08-31T16:59:28.059Z,1.80
2017-08-31T17:01:55.569Z,1.90
2017-08-31T17:04:23.064Z,1.73
2017-08-31T17:06:50.602Z,2.03
2017-08-31T17:09:18.118Z,1.70
2017-08-31T17:11:45.630Z,1.50
2017-08-31T17:14:13.160Z,1.40
2017-08-31T17:16:40.668Z,1.37
2017-08-31T17:19:08.173Z,1.70
2017-08-31T17:21:35.718Z,1.70
2017-08-31T17:24:03.228Z,1.60
2017-08-31T17:26:30.732Z,1.80
2017-08-31T17:28:58.380Z,1.93
2017-08-31T17:31:25.894Z,1.80
2017-08-31T17:33:53.410Z,1.70
2017-08-31T17:36:20.955Z,1.50
2017-08-31T17:38:48.512Z,1.43
2017-08-31T17:41:16.013Z,2.00
2017-08-31T17:43:43.539Z,2.30
2017-08-31T17:46:11.051Z,2.20
2017-08-31T17:48:38.570Z,2.60
2017-08-31T17:51:06.112Z,2.63
2017-08-31T17:53:33.615Z,2.23
2017-08-31T17:56:01.129Z,2.80
2017-08-31T17:58:28.652Z,2.60
2017-08-31T18:00:56.917Z,2.50
2017-08-31T18:03:24.513Z,2.40
2017-08-31T18:05:52.036Z,3.90
2017-08-31T18:08:19.528Z,3.07
2017-08-31T18:10:47.027Z,3.80
2017-08-31T18:13:14.556Z,3.47
2017-08-31T18:15:42.051Z,3.37
2017-08-31T18:18:09.551Z,3.50
2017-08-31T18:20:37.076Z,3.87
2017-08-31T18:23:04.590Z,4.10
2017-08-31T18:25:32.079Z,3.77
2017-08-31T18:27:59.608Z,4.27
2017-08-31T18:30:27.124Z,4.50
2017-08-31T18:32:54.638Z,3.80
2017-08-31T18:35:22.165Z,4.37
2017-08-31T18:37:49.727Z,3.63
2017-08-31T18:40:17.226Z,6.00
2017-08-31T18:42:44.846Z,3.87
2017-08-31T18:45:12.354Z,4.77
2017-08-31T18:47:39.865Z,5.33
2017-08-31T18:50:07.402Z,5.17
2017-08-31T18:52:34.904Z,5.47
2017-08-31T18:55:02.400Z,5.10
2017-08-31T18:57:29.937Z,5.67
2017-08-31T18:59:57.460Z,5.93
2017-08-31T19:02:25.088Z,5.70
2017-08-31T19:04:52.630Z,5.90
2017-08-31T19:07:20.141Z,7.00
2017-08-31T19:09:47.654Z,6.53
2017-08-31T19:12:15.198Z,6.67
2017-08-31T19:14:42.715Z,7.73
2017-08-31T19:17:10.276Z,7.03
2017-08-31T19:19:37.819Z,7.67
2017-08-31T19:22:05.324Z,6.70
2017-08-31T19:24:32.819Z,6.80
2017-08-31T19:27:01.130Z,6.53
2017-08-31T19:29:28.680Z,8.03
2017-08-31T19:31:56.198Z,7.17
2017-08-31T19:34:23.746Z,7.07
2017-08-31T19:36:51.259Z,8.40
2017-08-31T19:39:18.767Z,7.40
2017-08-31T19:41:46.313Z,7.70
2017-08-31T19:44:13.826Z,8.07
2017-08-31T19:46:41.388Z,8.00
2017-08-31T19:49:08.920Z,8.50
2017-08-31T19:51:36.454Z,8.10
2017-08-31T19:54:03.951Z,8.20
2017-08-31T19:56:31.507Z,10.50
2017-08-31T19:58:59.015Z,9.03
2017-08-31T20:01:26.516Z,8.30
2017-08-31T20:03:54.054Z,10.10
2017-08-31T20:06:21.578Z,8.77
2017-08-31T20:08:49.101Z,8.90
2017-08-31T20:11:16.650Z,10.30
2017-08-31T20:13:44.195Z,10.47
2017-08-31T20:16:11.719Z,10.27
2017-08-31T20:18:39.258Z,9.03
2017-08-31T20:21:06.787Z,9.30
2017-08-31T20:23:34.309Z,9.73
2017-08-31T20:26:01.843Z,10.10
2017-08-31T20:28:29.352Z,10.37
2017-08-31T20:30:56.873Z,10.20
2017-08-31T20:33:24.418Z,10.17
2017-08-31T20:35:51.938Z,10.27
2017-08-31T20:38:19.464Z,11.20
2017-08-31T20:40:47.009Z,10.17
2017-08-31T20:43:14.529Z,10.80
2017-08-31T20:45:42.031Z,10.83
2017-08-31T20:48:09.577Z,11.37
2017-08-31T20:50:37.098Z,11.33
2017-08-31T20:53:04.618Z,10.63
2017-08-31T20:55:32.166Z,13.57
2017-08-31T20:57:59.675Z,11.10
2017-08-31T21:00:27.198Z,11.20
2017-08-31T21:02:54.746Z,12.43
2017-08-31T21:05:22.308Z,11.60
2017-08-31T21:07:49.830Z,12.10
2017-08-31T21:10:17.363Z,11.90
2017-08-31T21:12:46.369Z,12.00
2017-08-31T21:15:13.894Z,12.93
2017-08-31T21:17:41.423Z,12.23
2017-08-31T21:20:08.946Z,12.80
2017-08-31T21:22:36.465Z,12.60
2017-08-31T21:25:04.014Z,12.70
2017-08-31T21:27:31.516Z,13.70
2017-08-31T21:29:59.041Z,13.73
2017-08-31T21:32:26.585Z,13.60
2017-08-31T21:34:54.111Z,12.70
2017-08-31T21:37:21.661Z,12.43
2017-08-31T21:39:49.185Z,14.20
2017-08-31T21:42:16.705Z,15.63
2017-08-31T21:44:44.236Z,13.43
2017-08-31T21:47:11.739Z,14.07
2017-08-31T21:49:39.254Z,13.73
2017-08-31T21:52:06.802Z,12.00
2017-08-31T21:54:34.326Z,14.30
2017-08-31T21:57:01.870Z,13.70
2017-08-31T21:59:29.380Z,14.53
2017-08-31T22:01:56.912Z,14.97
2017-08-31T22:04:24.420Z,16.60
2017-08-31T22:06:51.924Z,16.57
2017-08-31T22:09:19.460Z,15.77
2017-08-31T22:11:46.986Z,17.13
2017-08-31T22:14:15.270Z,13.20
2017-08-31T22:16:43.674Z,15.83
2017-08-31T22:19:11.956Z,15.93
2017-08-31T22:21:39.459Z,15.00
2017-08-31T22:24:07.007Z,16.60
2017-08-31T22:26:34.534Z,17.57
2017-08-31T22:29:02.037Z,16.23
2017-08-31T22:31:29.575Z,17.27
2017-08-31T22:33:57.080Z,16.03
2017-08-31T22:36:24.602Z,17.00
2017-08-31T22:38:52.135Z,17.03
2017-08-31T22:41:19.651Z,17.20
2017-08-31T22:43:47.172Z,17.07
2017-08-31T22:46:14.731Z,16.10
2017-08-31T22:48:42.254Z,16.87
2017-08-31T22:51:09.755Z,15.53
2017-08-31T22:53:37.280Z,17.00
2017-08-31T22:56:04.802Z,16.30
2017-08-31T22:58:43.191Z,17.10
2017-08-31T23:01:10.801Z,19.07
2017-08-31T23:03:38.308Z,19.63
2017-08-31T23:06:05.836Z,19.67
2017-08-31T23:08:33.361Z,19.70
2017-08-31T23:11:00.891Z,19.00
2017-08-31T23:13:28.422Z,18.30
2017-08-31T23:15:55.928Z,17.90
2017-08-31T23:18:23.506Z,18.63
2017-08-31T23:20:51.024Z,18.93
2017-08-31T23:23:18.560Z,19.40
2017-08-31T23:25:46.092Z,19.30
2017-08-31T23:28:13.642Z,19.40
2017-08-31T23:30:41.162Z,18.40
2017-08-31T23:33:08.682Z,18.87
2017-08-31T23:35:36.320Z,17.43
2017-08-31T23:38:03.846Z,18.80
2017-08-31T23:40:32.166Z,19.90
2017-08-31T23:42:59.712Z,20.63
2017-08-31T23:45:27.233Z,21.10
2017-08-31T23:47:55.532Z,22.07
2017-08-31T23:50:23.061Z,21.97
2017-08-31T23:52:50.563Z,20.47
2017-08-31T23:55:18.090Z,21.00
2017-08-31T23:57:46.373Z,20.27
